Terminal Aerodrome Forecast
Issued by NWS

Home | Current Version | Previous Version | Text Only | Print | Product List | Glossary On
Versions: 1 2 3 4 5 6 7 8 9 10 11 12 13 14 15 16 17 18 19
595
FTUS43 KJKL 110520
TAFSJS
TAF
KSJS 110520Z 1106/1206 00000KT P6SM SCT120
     FM111700 18008KT P6SM SCT150
     FM120000 18007KT P6SM BKN050 WS020/19040KT
     FM120500 21008KT 5SM -RA OVC025=

USA.gov is the U.S. government's official web portal to all federal, state and local government web resources and services.